Time;durP1;ratioP1;P1;durP2;ratioP2;P2;SDS_P1;SDS_P2;PMS_P1;PMS_P2;Temp;Humidity;BMP_temperature;BMP_pressure;BME280_temperature;BME280_humidity;BME280_pressure;Samples;Min_cycle;Max_cycle;Signal;HPM_P1;HPM_P2
2023/06/04 00:00:31;;;;;;;8.13;2.45;;;;;;;12.13;100.00;102403.44;4967934;28;20049;-78
2023/06/04 00:02:58;;;;;;;6.70;2.05;;;;;;;12.09;100.00;102390.16;4944364;28;20538;-77
2023/06/04 00:05:25;;;;;;;9.95;2.85;;;;;;;12.08;100.00;102406.91;4982858;28;20503;-77
2023/06/04 00:07:53;;;;;;;10.20;2.53;;;;;;;12.04;100.00;102397.13;4951969;28;20420;-76
2023/06/04 00:10:20;;;;;;;9.90;2.15;;;;;;;12.01;100.00;102394.41;4971358;28;20038;-77
2023/06/04 00:12:48;;;;;;;5.32;2.70;;;;;;;12.01;100.00;102388.22;4945031;28;20161;-80
2023/06/04 00:15:16;;;;;;;9.10;2.65;;;;;;;11.99;100.00;102390.84;4980748;28;20058;-77
2023/06/04 00:17:43;;;;;;;11.75;3.63;;;;;;;11.98;100.00;102386.41;4983823;28;20059;-77
2023/06/04 00:20:11;;;;;;;9.32;2.67;;;;;;;11.97;100.00;102389.91;4924062;28;20527;-77
2023/06/04 00:22:41;;;;;;;7.90;2.22;;;;;;;11.98;100.00;102389.03;4975914;28;20061;-77
2023/06/04 00:25:09;;;;;;;16.85;3.25;;;;;;;11.97;100.00;102389.91;4979101;28;20045;-79
2023/06/04 00:27:37;;;;;;;12.75;2.67;;;;;;;11.97;100.00;102387.28;4945626;28;20053;-79
2023/06/04 00:30:05;;;;;;;10.68;2.60;;;;;;;11.97;100.00;102391.66;4982571;28;20061;-77
2023/06/04 00:32:32;;;;;;;5.00;2.33;;;;;;;11.97;100.00;102392.56;4973686;28;20769;-78
2023/06/04 00:35:01;;;;;;;10.75;3.47;;;;;;;11.96;100.00;102396.03;4936455;28;20043;-77
2023/06/04 00:37:29;;;;;;;11.13;2.80;;;;;;;11.96;100.00;102395.16;4962599;28;20050;-77
2023/06/04 00:39:57;;;;;;;7.88;2.75;;;;;;;11.95;100.00;102398.69;4968465;28;20097;-77
2023/06/04 00:42:24;;;;;;;16.42;2.92;;;;;;;11.92;100.00;102385.38;4956274;28;20069;-77
2023/06/04 00:44:51;;;;;;;10.13;3.53;;;;;;;11.90;100.00;102386.22;4981153;28;20042;-77
2023/06/04 00:47:20;;;;;;;12.20;3.08;;;;;;;11.88;100.00;102382.63;4958837;28;20061;-79
2023/06/04 00:49:48;;;;;;;9.77;2.75;;;;;;;11.85;100.00;102385.22;4951240;28;20059;-79
2023/06/04 00:52:16;;;;;;;9.93;2.95;;;;;;;11.83;100.00;102384.28;4983268;28;20064;-77
2023/06/04 00:54:43;;;;;;;18.17;3.45;;;;;;;11.82;100.00;102382.50;4961776;28;20050;-79
2023/06/04 00:57:10;;;;;;;8.93;2.88;;;;;;;11.81;100.00;102393.03;4965541;28;20055;-78
2023/06/04 00:59:41;;;;;;;10.50;2.53;;;;;;;11.80;100.00;102396.53;4965449;28;20042;-78
2023/06/04 01:02:11;;;;;;;;;;;;;;;11.77;100.00;102393.81;4960284;28;20042;-76
2023/06/04 01:04:55;;;;;;;10.55;3.20;;;;;;;11.75;100.00;102400.81;4971321;28;19929;-79
2023/06/04 01:07:23;;;;;;;11.68;3.50;;;;;;;11.75;100.00;102398.19;4941335;28;20045;-79
2023/06/04 01:09:51;;;;;;;9.25;3.05;;;;;;;11.70;100.00;102391.03;4952072;28;20046;-79
2023/06/04 01:12:18;;;;;;;10.63;2.97;;;;;;;11.71;100.00;102399.84;4982069;28;20502;-78
2023/06/04 01:14:45;;;;;;;9.93;3.22;;;;;;;11.71;100.00;102392.81;4939691;28;20054;-78
2023/06/04 01:17:37;;;;;;;14.10;3.88;;;;;;;11.70;100.00;102377.84;4983113;28;20062;-78
2023/06/04 01:20:22;;;;;;;7.93;2.45;;;;;;;11.69;100.00;102391.00;4981657;28;20074;-78
2023/06/04 01:22:59;;;;;;;6.43;2.78;;;;;;;11.67;100.00;102390.97;4928985;28;20662;-78
2023/06/04 01:25:45;;;;;;;11.85;3.35;;;;;;;11.66;100.00;102388.28;4965236;28;20077;-78
2023/06/04 01:28:15;;;;;;;7.45;2.70;;;;;;;11.64;100.00;102382.97;4968412;28;20062;-78
2023/06/04 01:30:48;;;;;;;10.40;2.80;;;;;;;11.60;100.00;102386.38;4983855;28;20942;-78
2023/06/04 01:33:17;;;;;;;10.68;2.60;;;;;;;11.57;100.00;102382.78;4976838;28;20050;-78
2023/06/04 01:35:45;;;;;;;10.60;3.08;;;;;;;11.53;100.00;102384.47;4984296;28;20042;-78
2023/06/04 01:38:12;;;;;;;10.73;3.28;;;;;;;11.50;100.00;102389.69;4936334;28;20068;-78
2023/06/04 01:40:40;;;;;;;8.77;2.40;;;;;;;11.49;100.00;102393.16;4955660;28;20069;-78
2023/06/04 01:43:08;;;;;;;10.73;2.60;;;;;;;11.45;100.00;102386.03;4952487;28;20235;-78
2023/06/04 01:45:36;;;;;;;7.72;2.60;;;;;;;11.43;100.00;102388.63;4983381;28;20050;-78
2023/06/04 01:48:05;;;;;;;11.02;3.17;;;;;;;11.42;100.00;102388.63;4980462;28;20057;-78
2023/06/04 01:50:32;;;;;;;10.73;3.20;;;;;;;11.41;100.00;102387.69;4983453;28;20069;-77
2023/06/04 01:53:00;;;;;;;8.32;2.35;;;;;;;11.39;100.00;102384.13;4927105;28;20058;-78
2023/06/04 01:55:33;;;;;;;10.18;2.70;;;;;;;11.38;100.00;102395.56;4967943;28;20058;-78
2023/06/04 01:58:01;;;;;;;9.93;3.10;;;;;;;11.38;100.00;102385.00;4970793;28;20069;-78
2023/06/04 02:00:28;;;;;;;14.18;3.42;;;;;;;11.36;100.00;102381.44;4981305;28;20523;-78
2023/06/04 02:02:56;;;;;;;10.18;2.88;;;;;;;11.34;100.00;102375.19;4989383;28;20058;-77
2023/06/04 02:05:24;;;;;;;8.43;2.72;;;;;;;11.32;100.00;102391.03;4965921;28;20061;-78
2023/06/04 02:07:51;;;;;;;8.00;3.20;;;;;;;11.30;100.00;102387.44;4927480;28;20042;-78
2023/06/04 02:10:19;;;;;;;8.07;2.80;;;;;;;11.27;100.00;102382.09;4972985;28;20049;-78
2023/06/04 02:12:59;;;;;;;8.05;3.22;;;;;;;11.27;100.00;102382.09;4964701;28;20046;-78
2023/06/04 02:15:27;;;;;;;7.15;2.80;;;;;;;11.25;100.00;102399.63;4980547;28;20039;-78
2023/06/04 02:17:59;;;;;;;11.60;3.50;;;;;;;11.24;100.00;102397.84;4979690;28;20054;-78
2023/06/04 02:20:27;;;;;;;8.63;3.42;;;;;;;11.23;100.00;102397.81;4978746;28;20503;-78
2023/06/04 02:22:55;;;;;;;13.15;3.40;;;;;;;11.21;100.00;102387.22;4927330;28;20062;-77
2023/06/04 02:25:23;;;;;;;7.65;2.97;;;;;;;11.21;100.00;102388.94;4972586;28;20038;-77
2023/06/04 02:27:51;;;;;;;8.50;3.15;;;;;;;11.19;100.00;102395.94;4975224;28;20061;-78
2023/06/04 02:30:18;;;;;;;12.88;3.58;;;;;;;11.17;100.00;102389.72;4979962;28;20046;-78
2023/06/04 02:32:50;;;;;;;10.90;3.65;;;;;;;11.14;100.00;102394.94;4957448;28;20062;-78
2023/06/04 02:35:20;;;;;;;8.45;2.90;;;;;;;11.14;100.00;102393.19;4949957;28;20415;-78
2023/06/04 02:37:51;;;;;;;13.85;4.07;;;;;;;11.10;100.00;102386.06;4949743;28;20689;-78
2023/06/04 02:40:18;;;;;;;11.88;3.50;;;;;;;11.08;100.00;102395.69;4923729;28;20412;-78
2023/06/04 02:42:46;;;;;;;9.75;3.47;;;;;;;11.07;100.00;102401.78;4982961;28;20046;-78
2023/06/04 02:45:14;;;;;;;7.32;3.00;;;;;;;11.08;100.00;102403.59;4964597;28;20054;-77
2023/06/04 02:47:41;;;;;;;12.88;3.90;;;;;;;11.07;100.00;102396.50;4976740;28;20064;-78
2023/06/04 02:50:09;;;;;;;7.50;2.60;;;;;;;11.05;100.00;102398.22;4963344;28;20054;-77
2023/06/04 02:52:39;;;;;;;5.75;2.75;;;;;;;11.04;100.00;102401.69;4966250;28;20057;-78
2023/06/04 02:55:11;;;;;;;11.48;3.20;;;;;;;11.05;100.00;102403.50;4921220;28;20046;-77
2023/06/04 02:57:42;;;;;;;10.43;3.20;;;;;;;11.05;100.00;102403.50;4983532;28;20063;-77
2023/06/04 03:00:12;;;;;;;5.20;2.58;;;;;;;11.05;100.00;102399.09;4974469;28;20038;-77
2023/06/04 03:02:47;;;;;;;5.63;2.78;;;;;;;11.03;100.00;102389.38;4984009;28;20456;-77
2023/06/04 03:05:17;;;;;;;7.07;3.03;;;;;;;11.00;100.00;102395.47;4976075;28;20766;-77
2023/06/04 03:07:46;;;;;;;8.50;3.05;;;;;;;10.99;100.00;102393.69;4985312;28;20050;-78
2023/06/04 03:10:16;;;;;;;12.07;3.33;;;;;;;10.99;100.00;102400.72;4950797;28;20050;-78
2023/06/04 03:12:43;;;;;;;10.63;3.25;;;;;;;10.99;100.00;102400.72;4969076;28;20052;-77
2023/06/04 03:15:11;;;;;;;8.77;2.90;;;;;;;10.97;100.00;102397.13;4959415;28;20446;-78
2023/06/04 03:17:38;;;;;;;7.90;2.95;;;;;;;10.93;100.00;102399.69;4981428;28;20428;-78
2023/06/04 03:20:07;;;;;;;6.97;3.10;;;;;;;10.91;100.00;102388.22;4984934;28;20043;-78
2023/06/04 03:22:35;;;;;;;10.15;2.55;;;;;;;10.91;100.00;102397.88;4967611;28;20046;-78
2023/06/04 03:25:04;;;;;;;10.38;3.45;;;;;;;10.88;100.00;102385.47;4945893;28;20054;-78
2023/06/04 03:27:32;;;;;;;7.07;2.75;;;;;;;10.88;100.00;102389.88;4956264;28;20420;-78
2023/06/04 03:30:00;;;;;;;6.93;2.97;;;;;;;10.88;100.00;102379.31;4975187;28;20057;-78
2023/06/04 03:32:33;;;;;;;12.32;2.80;;;;;;;10.89;100.00;102387.28;4959408;28;20058;-78
2023/06/04 03:35:02;;;;;;;8.32;2.85;;;;;;;10.92;100.00;102384.69;4985780;28;20054;-77
2023/06/04 03:37:32;;;;;;;10.80;3.00;;;;;;;10.98;100.00;102391.00;4981240;28;20046;-77
2023/06/04 03:40:01;;;;;;;7.75;2.75;;;;;;;11.00;100.00;102384.00;4931276;28;20046;-78
2023/06/04 03:42:29;;;;;;;7.20;2.78;;;;;;;11.06;100.00;102382.44;4942331;28;20054;-78
2023/06/04 03:44:58;;;;;;;10.65;3.58;;;;;;;11.12;100.00;102381.72;4968171;28;20050;-77
2023/06/04 03:47:27;;;;;;;9.80;4.07;;;;;;;11.16;100.00;102393.22;4971515;28;20503;-78
2023/06/04 03:49:54;;;;;;;10.52;3.42;;;;;;;11.21;100.00;102388.94;4968520;28;20090;-77
2023/06/04 03:52:23;;;;;;;8.63;2.75;;;;;;;11.25;100.00;102386.44;4967491;28;20065;-78
2023/06/04 03:54:51;;;;;;;10.35;3.55;;;;;;;11.31;100.00;102377.78;4985378;28;20494;-77
2023/06/04 03:57:19;;;;;;;10.93;3.47;;;;;;;11.36;100.00;102378.78;4915447;28;20061;-78
2023/06/04 03:59:46;;;;;;;9.50;3.35;;;;;;;11.44;100.00;102382.50;4983784;28;20042;-78
2023/06/04 04:02:14;;;;;;;10.82;3.15;;;;;;;11.49;100.00;102369.41;4963168;28;20054;-77
2023/06/04 04:04:42;;;;;;;8.20;3.42;;;;;;;11.54;100.00;102380.97;4951399;28;20050;-77
2023/06/04 04:07:10;;;;;;;9.85;3.38;;;;;;;11.60;100.00;102390.78;4978970;28;20073;-77
2023/06/04 04:09:38;;;;;;;9.63;2.67;;;;;;;11.70;100.00;102377.84;4948043;28;20054;-78
2023/06/04 04:12:05;;;;;;;7.35;2.47;;;;;;;11.95;100.00;102378.44;4937067;28;20041;-78
2023/06/04 04:14:34;;;;;;;10.50;3.05;;;;;;;12.46;100.00;102380.38;4962613;28;20072;-78
2023/06/04 04:17:03;;;;;;;11.55;3.60;;;;;;;13.05;100.00;102374.41;4986526;28;20054;-78
2023/06/04 04:19:31;;;;;;;9.45;4.05;;;;;;;13.64;100.00;102373.59;4951897;28;20053;-78
2023/06/04 04:21:59;;;;;;;11.02;2.97;;;;;;;14.21;100.00;102378.78;4958982;28;20043;-78
2023/06/04 04:24:27;;;;;;;10.05;2.92;;;;;;;14.73;100.00;102376.78;4971821;28;20050;-78
2023/06/04 04:27:03;;;;;;;9.02;2.80;;;;;;;15.28;100.00;102380.81;4975541;28;20054;-78
2023/06/04 04:29:34;;;;;;;7.97;3.30;;;;;;;15.72;100.00;102374.94;4931251;28;21021;-78
2023/06/04 04:32:10;;;;;;;6.72;2.78;;;;;;;16.14;100.00;102378.72;4969511;28;20688;-78
2023/06/04 04:34:53;;;;;;;10.32;2.58;;;;;;;16.54;100.00;102377.13;4970601;28;20059;-78
2023/06/04 04:37:26;;;;;;;10.77;2.97;;;;;;;16.98;100.00;102380.78;4978837;28;20057;-78
2023/06/04 04:39:56;;;;;;;;;;;;;;;17.38;100.00;102370.13;4957187;28;20050;-77
2023/06/04 04:42:25;;;;;;;10.18;2.67;;;;;;;17.80;100.00;102378.03;4922025;28;19965;-78
2023/06/04 04:44:52;;;;;;;14.55;2.95;;;;;;;18.20;100.00;102377.94;4966718;28;20050;-78
2023/06/04 04:47:23;;;;;;;6.85;2.38;;;;;;;18.51;100.00;102381.34;4939816;28;20090;-78
2023/06/04 04:49:50;;;;;;;7.80;2.70;;;;;;;18.67;100.00;102383.03;4954923;28;20520;-78
2023/06/04 04:52:17;;;;;;;9.43;2.65;;;;;;;18.76;100.00;102378.53;4978402;28;20050;-78
2023/06/04 04:54:46;;;;;;;11.93;2.22;;;;;;;18.85;100.00;102378.50;4937131;28;20061;-77
2023/06/04 04:57:13;;;;;;;9.45;2.40;;;;;;;19.16;100.00;102368.47;4982436;28;20042;-77
2023/06/04 04:59:45;;;;;;;9.25;2.53;;;;;;;19.45;100.00;102375.31;4947603;28;20654;-77
2023/06/04 05:02:14;;;;;;;8.15;2.05;;;;;;;19.67;100.00;102371.53;4979415;28;20050;-77
2023/06/04 05:04:42;;;;;;;11.93;2.65;;;;;;;19.71;100.00;102369.72;4962390;28;20047;-77
2023/06/04 05:07:10;;;;;;;11.35;2.45;;;;;;;19.59;100.00;102365.41;4964608;28;20073;-77
2023/06/04 05:09:37;;;;;;;9.82;2.20;;;;;;;19.76;100.00;102373.28;4954517;28;20054;-77
2023/06/04 05:12:05;;;;;;;7.68;1.98;;;;;;;20.06;100.00;102372.03;4972782;28;20061;-77
2023/06/04 05:14:35;;;;;;;5.72;1.95;;;;;;;20.40;100.00;102368.03;4923993;28;20047;-77
2023/06/04 05:17:06;;;;;;;8.02;2.03;;;;;;;20.71;100.00;102362.28;4955875;28;20507;-77
2023/06/04 05:19:35;;;;;;;10.68;2.65;;;;;;;20.81;100.00;102366.56;4973526;28;20042;-77
2023/06/04 05:22:02;;;;;;;9.43;2.70;;;;;;;20.89;100.00;102372.72;4981289;28;20046;-77
2023/06/04 05:24:31;;;;;;;8.68;2.20;;;;;;;20.96;100.00;102379.75;4962303;28;20073;-77
2023/06/04 05:27:03;;;;;;;9.15;2.28;;;;;;;20.94;100.00;102381.53;4963039;28;20054;-78
2023/06/04 05:29:31;;;;;;;3.85;1.75;;;;;;;20.94;98.62;102376.19;4905341;28;20058;-77
2023/06/04 05:31:58;;;;;;;6.20;2.22;;;;;;;21.00;98.90;102385.91;4960279;28;20050;-77
2023/06/04 05:34:26;;;;;;;8.88;2.70;;;;;;;21.07;96.19;102387.59;4956161;28;20058;-77
2023/06/04 05:36:56;;;;;;;8.90;2.00;;;;;;;21.20;96.24;102380.25;4952218;28;20061;-77
2023/06/04 05:39:24;;;;;;;7.78;2.30;;;;;;;21.35;94.21;102368.38;4961413;28;20522;-78
2023/06/04 05:41:58;;;;;;;9.65;1.98;;;;;;;21.35;93.21;102377.28;4952073;28;20042;-77
2023/06/04 05:44:25;;;;;;;9.93;2.08;;;;;;;21.39;91.94;102375.44;4961239;28;20054;-77
2023/06/04 05:46:53;;;;;;;4.97;1.95;;;;;;;21.69;90.35;102387.44;4922689;28;20077;-77
2023/06/04 05:49:24;;;;;;;4.93;1.90;;;;;;;21.67;86.73;102383.91;4962554;28;20058;-77
2023/06/04 05:51:52;;;;;;;3.58;1.58;;;;;;;21.61;87.02;102392.94;4970350;28;20054;-77
2023/06/04 05:54:20;;;;;;;7.38;2.10;;;;;;;21.79;86.29;102386.34;4986339;28;20058;-77
2023/06/04 05:56:48;;;;;;;6.60;1.90;;;;;;;21.80;83.95;102388.13;4964010;28;20061;-77
2023/06/04 05:59:16;;;;;;;7.13;1.92;;;;;;;21.91;83.34;102392.38;4960305;28;20058;-77
2023/06/04 06:01:43;;;;;;;9.20;2.42;;;;;;;21.79;79.85;102393.50;4946068;28;20065;-77
2023/06/04 06:04:12;;;;;;;5.20;2.13;;;;;;;21.57;80.58;102388.56;4960383;28;20057;-77
2023/06/04 06:06:43;;;;;;;6.10;2.20;;;;;;;21.73;81.20;102390.94;4963239;28;20058;-78
2023/06/04 06:09:11;;;;;;;6.40;1.92;;;;;;;21.89;80.39;102386.16;4962181;28;20062;-77
2023/06/04 06:11:38;;;;;;;5.50;1.90;;;;;;;21.78;78.17;102389.94;4941885;28;20574;-78
2023/06/04 06:14:06;;;;;;;5.07;1.80;;;;;;;21.93;77.91;102387.91;4958405;28;20511;-77
2023/06/04 06:16:34;;;;;;;9.93;1.67;;;;;;;21.99;76.06;102382.41;4938729;28;20065;-77
2023/06/04 06:19:02;;;;;;;7.57;1.90;;;;;;;21.64;73.83;102389.31;4979714;28;20046;-77
2023/06/04 06:21:30;;;;;;;3.78;1.83;;;;;;;20.99;74.07;102390.41;4981396;28;20065;-77
2023/06/04 06:23:57;;;;;;;5.63;1.60;;;;;;;20.71;78.02;102392.59;4936240;28;20058;-77
2023/06/04 06:26:25;;;;;;;6.32;2.15;;;;;;;20.72;76.76;102393.50;4967150;28;20057;-77
2023/06/04 06:28:56;;;;;;;4.63;2.08;;;;;;;20.71;74.74;102389.06;4959401;28;20070;-77
2023/06/04 06:31:24;;;;;;;4.22;1.80;;;;;;;20.56;74.19;102401.72;4953083;28;20046;-78
2023/06/04 06:33:52;;;;;;;5.60;1.75;;;;;;;20.40;75.11;102401.03;4940857;28;20046;-78
2023/06/04 06:36:19;;;;;;;8.30;2.08;;;;;;;20.12;75.32;102400.50;4987930;28;20042;-78
2023/06/04 06:38:47;;;;;;;5.40;2.10;;;;;;;19.81;76.35;102397.28;4978800;28;20545;-78
2023/06/04 06:41:14;;;;;;;4.70;1.70;;;;;;;19.42;76.87;102408.34;4977293;28;20050;-77
2023/06/04 06:43:41;;;;;;;9.20;2.20;;;;;;;19.13;78.29;102394.31;4954321;28;20058;-77
2023/06/04 06:46:09;;;;;;;5.00;2.00;;;;;;;18.76;78.21;102398.13;4976699;28;20058;-77
2023/06/04 06:48:36;;;;;;;5.78;1.67;;;;;;;18.39;80.89;102406.34;4935933;28;20073;-77
2023/06/04 06:51:04;;;;;;;5.38;1.80;;;;;;;18.02;82.35;102409.13;4945143;28;20089;-78
2023/06/04 06:53:31;;;;;;;5.00;2.00;;;;;;;17.80;84.55;102405.59;4973068;28;20511;-78
2023/06/04 06:55:59;;;;;;;8.23;2.40;;;;;;;17.56;85.39;102426.94;4984497;28;20049;-77
2023/06/04 06:58:26;;;;;;;4.00;1.63;;;;;;;17.36;86.99;102419.84;4969861;28;20054;-77
2023/06/04 07:00:56;;;;;;;4.13;1.60;;;;;;;17.21;87.30;102426.06;4966162;28;20047;-77
2023/06/04 07:03:23;;;;;;;3.60;1.60;;;;;;;17.08;89.36;102419.84;4942211;28;20050;-77
2023/06/04 07:05:51;;;;;;;4.28;1.80;;;;;;;17.04;88.87;102438.47;4964953;28;20516;-77
2023/06/04 07:08:18;;;;;;;4.68;1.65;;;;;;;17.04;90.11;102436.69;4958029;28;20420;-77
2023/06/04 07:10:45;;;;;;;4.43;1.67;;;;;;;17.12;91.40;102426.94;4964310;28;20073;-77
2023/06/04 07:13:13;;;;;;;5.63;1.73;;;;;;;17.24;91.57;102423.41;4968507;28;20054;-77
2023/06/04 07:15:40;;;;;;;5.47;1.88;;;;;;;17.17;92.15;102429.63;4965560;28;20053;-76
2023/06/04 07:18:07;;;;;;;6.05;1.83;;;;;;;17.14;94.08;102426.94;4940855;28;20066;-77
2023/06/04 07:20:35;;;;;;;6.72;1.73;;;;;;;17.23;93.25;102429.63;4967938;28;20057;-78
2023/06/04 07:23:02;;;;;;;5.53;1.83;;;;;;;17.28;93.62;102418.97;4979329;28;20066;-77
2023/06/04 07:25:30;;;;;;;4.57;1.92;;;;;;;17.28;92.72;102421.66;4938604;28;20099;-78
2023/06/04 07:27:57;;;;;;;6.07;1.75;;;;;;;17.23;92.03;102418.97;4966887;28;20062;-78
2023/06/04 07:30:25;;;;;;;7.35;2.03;;;;;;;17.22;93.64;102441.19;4954082;28;20042;-78
2023/06/04 07:32:53;;;;;;;3.38;1.52;;;;;;;17.24;94.43;102433.16;4981167;28;20042;-78
2023/06/04 07:35:20;;;;;;;5.63;2.28;;;;;;;17.24;95.21;102426.09;4941170;28;20050;-78
2023/06/04 07:37:48;;;;;;;5.03;2.22;;;;;;;17.28;95.31;102427.84;4965891;28;20575;-78
2023/06/04 07:40:17;;;;;;;4.63;1.30;;;;;;;17.34;94.94;102424.31;4968208;28;20377;-78
2023/06/04 07:42:46;;;;;;;3.63;1.70;;;;;;;17.41;95.15;102431.41;4981260;28;20043;-78
2023/06/04 07:45:13;;;;;;;4.68;1.70;;;;;;;17.53;94.95;102422.53;4981231;28;20061;-79
2023/06/04 07:47:42;;;;;;;5.20;1.73;;;;;;;17.60;94.52;102424.28;4967422;28;20054;-78
2023/06/04 07:50:10;;;;;;;7.97;1.80;;;;;;;17.56;92.20;102432.28;4933350;28;20439;-78
2023/06/04 07:52:37;;;;;;;5.65;1.70;;;;;;;17.49;92.41;102432.28;4971389;28;20049;-78
2023/06/04 07:55:05;;;;;;;4.93;2.00;;;;;;;17.41;91.14;102431.41;4958714;28;20142;-78
2023/06/04 07:57:33;;;;;;;2.97;1.50;;;;;;;17.44;91.54;102433.19;4980031;28;20050;-78
2023/06/04 08:00:01;;;;;;;5.97;1.70;;;;;;;17.48;90.69;102430.50;4966171;28;20069;-78
2023/06/04 08:02:37;;;;;;;1.73;1.48;;;;;;;17.50;89.92;102438.50;4970830;28;20054;-78
2023/06/04 08:05:06;;;;;;;4.30;1.40;;;;;;;17.52;90.25;102442.97;4941221;28;20526;-78
2023/06/04 08:07:33;;;;;;;3.25;1.15;;;;;;;17.51;89.71;102446.50;4979478;28;20054;-78
2023/06/04 08:10:00;;;;;;;4.55;1.10;;;;;;;17.51;88.40;102445.63;4982522;28;20057;-78
2023/06/04 08:12:28;;;;;;;3.13;1.65;;;;;;;17.50;88.69;102436.75;4966074;28;20042;-78
2023/06/04 08:14:57;;;;;;;2.85;1.40;;;;;;;17.39;88.94;102441.19;4956073;28;20057;-77
2023/06/04 08:17:24;;;;;;;3.10;1.67;;;;;;;17.30;87.88;102457.16;4937574;28;20069;-78
2023/06/04 08:19:52;;;;;;;4.90;1.40;;;;;;;17.16;89.08;102451.81;4924801;28;20150;-78
2023/06/04 08:22:19;;;;;;;3.95;1.48;;;;;;;17.09;90.01;102445.59;4981944;28;20038;-78
2023/06/04 08:24:47;;;;;;;2.88;1.48;;;;;;;17.06;90.97;102448.25;4930701;28;20065;-79
2023/06/04 08:27:14;;;;;;;4.90;1.65;;;;;;;17.10;91.14;102452.69;4952811;28;20058;-79
2023/06/04 08:29:41;;;;;;;5.60;2.28;;;;;;;17.08;91.95;102458.91;4978720;28;20054;-80
2023/06/04 08:32:09;;;;;;;2.83;1.52;;;;;;;17.07;92.23;102454.44;4949764;28;20052;-80
2023/06/04 08:34:36;;;;;;;5.18;1.67;;;;;;;17.03;92.44;102453.59;4908698;28;20420;-79
2023/06/04 08:37:04;;;;;;;3.05;1.48;;;;;;;16.91;92.58;102454.41;4963005;28;20054;-78
2023/06/04 08:39:33;;;;;;;3.88;1.60;;;;;;;16.86;94.62;102455.28;4959987;28;20050;-78
2023/06/04 08:42:03;;;;;;;3.85;1.60;;;;;;;16.98;96.36;102455.34;4978722;28;20049;-79
2023/06/04 08:44:31;;;;;;;5.00;1.33;;;;;;;17.12;96.59;102450.03;4981225;28;20492;-79
2023/06/04 08:47:03;;;;;;;2.13;1.35;;;;;;;17.20;96.50;102455.34;4970904;28;20499;-78
2023/06/04 08:49:37;;;;;;;3.88;1.58;;;;;;;17.29;97.05;102456.25;4973726;28;20419;-78
2023/06/04 08:52:06;;;;;;;3.22;1.70;;;;;;;17.28;96.29;102457.16;4943439;28;20903;-78
2023/06/04 08:54:33;;;;;;;2.38;1.77;;;;;;;17.22;95.60;102448.25;4981554;28;20434;-78
2023/06/04 08:57:02;;;;;;;3.95;1.98;;;;;;;17.12;96.78;102461.56;4935907;28;20077;-78
2023/06/04 08:59:29;;;;;;;2.70;1.58;;;;;;;17.15;97.15;102448.25;4976082;28;20061;-78
2023/06/04 09:01:58;;;;;;;3.25;1.67;;;;;;;17.15;97.42;102458.91;4952014;28;20046;-78
2023/06/04 09:04:26;;;;;;;6.75;1.63;;;;;;;17.09;97.04;102466.03;4971126;28;20050;-79
2023/06/04 09:06:54;;;;;;;3.47;1.70;;;;;;;16.98;96.88;102463.31;4919398;28;20049;-78
2023/06/04 09:09:24;;;;;;;3.75;1.55;;;;;;;16.92;98.65;102458.00;4964938;28;20038;-78
2023/06/04 09:11:53;;;;;;;5.88;1.70;;;;;;;16.88;97.98;102459.75;4958868;28;20038;-78
2023/06/04 09:14:21;;;;;;;2.33;1.45;;;;;;;16.80;99.00;102460.56;4977146;28;20766;-78
2023/06/04 09:16:54;;;;;;;3.70;1.48;;;;;;;16.73;99.34;102457.03;4969283;28;20066;-79
2023/06/04 09:19:22;;;;;;;3.00;1.52;;;;;;;16.70;99.96;102468.53;4944798;28;20061;-78
2023/06/04 09:21:52;;;;;;;5.57;1.77;;;;;;;16.71;100.00;102462.34;4916981;28;20058;-78
2023/06/04 09:24:21;;;;;;;2.88;1.42;;;;;;;16.75;100.00;102457.91;4975726;28;20054;-79
2023/06/04 09:26:49;;;;;;;3.28;1.67;;;;;;;16.81;100.00;102457.03;4958964;28;20054;-78
2023/06/04 09:29:19;;;;;;;3.75;2.17;;;;;;;16.80;100.00;102452.59;4972176;28;20046;-79
2023/06/04 09:31:47;;;;;;;4.40;1.67;;;;;;;16.88;100.00;102454.44;4966946;28;20058;-78
2023/06/04 09:34:15;;;;;;;4.05;1.80;;;;;;;16.91;100.00;102461.53;4953249;28;20058;-78
2023/06/04 09:36:42;;;;;;;3.55;1.50;;;;;;;16.99;100.00;102450.91;4937095;28;20085;-79
2023/06/04 09:39:17;;;;;;;3.97;1.75;;;;;;;17.01;100.00;102455.31;4954984;28;20053;-78
2023/06/04 09:41:45;;;;;;;6.13;1.65;;;;;;;17.00;100.00;102453.56;4976146;28;20065;-78
2023/06/04 09:44:12;;;;;;;3.75;1.63;;;;;;;16.92;100.00;102455.34;4970995;28;20105;-78
2023/06/04 09:46:40;;;;;;;4.65;1.77;;;;;;;16.85;100.00;102462.41;4982903;28;20699;-78
2023/06/04 09:49:07;;;;;;;8.15;1.75;;;;;;;16.89;100.00;102471.28;4970459;28;20049;-78
2023/06/04 09:51:36;;;;;;;4.65;1.80;;;;;;;16.87;100.00;102463.28;4917416;28;20073;-78
2023/06/04 09:54:04;;;;;;;2.75;1.67;;;;;;;16.87;100.00;102462.41;4956013;28;20042;-78
2023/06/04 09:56:39;;;;;;;7.35;1.48;;;;;;;16.86;100.00;102461.53;4989108;28;20053;-79
2023/06/04 09:59:09;;;;;;;5.50;1.67;;;;;;;16.93;100.00;102471.28;4974872;28;20046;-78
2023/06/04 10:01:41;;;;;;;2.70;1.60;;;;;;;16.95;100.00;102465.97;4992813;28;20061;-77
2023/06/04 10:04:11;;;;;;;6.18;1.92;;;;;;;16.92;100.00;102464.19;4998177;28;20062;-78
2023/06/04 10:06:40;;;;;;;3.03;1.55;;;;;;;16.89;100.00;102465.97;4951877;28;20057;-79
2023/06/04 10:09:08;;;;;;;3.10;1.73;;;;;;;16.89;100.00;102465.97;4971047;28;20069;-78
2023/06/04 10:11:57;;;;;;;6.68;1.80;;;;;;;17.02;100.00;102474.88;4988346;28;20049;-78
2023/06/04 10:14:39;;;;;;;4.88;1.60;;;;;;;17.11;100.00;102469.56;4978967;28;20046;-79
2023/06/04 10:17:09;;;;;;;3.45;1.70;;;;;;;17.22;100.00;102473.16;4972996;28;20054;-78
2023/06/04 10:19:38;;;;;;;5.90;1.55;;;;;;;17.22;99.99;102464.25;4972896;28;20046;-79
2023/06/04 10:22:05;;;;;;;7.38;1.70;;;;;;;17.25;99.60;102466.91;4936696;28;21883;-79
2023/06/04 10:24:33;;;;;;;6.35;1.45;;;;;;;17.23;99.54;102477.56;4972957;28;20062;-79
2023/06/04 10:27:01;;;;;;;5.03;1.77;;;;;;;17.23;98.99;102484.69;4991415;28;20062;-79
2023/06/04 10:29:29;;;;;;;3.33;1.40;;;;;;;17.21;98.95;102474.03;4977518;28;20057;-79
2023/06/04 10:31:57;;;;;;;2.08;1.60;;;;;;;17.18;98.37;102476.66;4956695;28;20051;-79
2023/06/04 10:34:26;;;;;;;3.28;1.40;;;;;;;17.11;98.20;102481.09;4959450;28;20050;-79
2023/06/04 10:36:55;;;;;;;4.05;1.20;;;;;;;17.09;98.62;102484.66;4976233;28;20055;-78
2023/06/04 10:39:29;;;;;;;3.00;1.60;;;;;;;17.13;98.50;102500.63;4926841;28;20046;-77
2023/06/04 10:42:01;;;;;;;4.53;1.83;;;;;;;17.22;96.34;102490.88;4984802;28;20452;-79
2023/06/04 10:44:43;;;;;;;2.78;1.80;;;;;;;17.24;96.59;102489.09;4975364;28;20714;-79
2023/06/04 10:47:23;;;;;;;4.28;1.60;;;;;;;17.21;96.44;102498.00;4969601;28;20397;-77
2023/06/04 10:49:52;;;;;;;2.70;1.52;;;;;;;17.25;96.57;102494.44;4953515;28;20050;-78
2023/06/04 10:52:19;;;;;;;7.60;1.83;;;;;;;17.33;97.45;102494.44;4968134;28;20046;-78
2023/06/04 10:54:53;;;;;;;8.85;1.70;;;;;;;17.42;95.80;102482.94;4933128;28;20438;-78
2023/06/04 10:57:21;;;;;;;5.68;1.60;;;;;;;17.44;94.42;102497.13;4972141;28;20050;-78
2023/06/04 10:59:55;;;;;;;2.95;1.40;;;;;;;17.36;94.52;102489.13;4952095;28;20066;-78
2023/06/04 11:02:23;;;;;;;3.05;1.60;;;;;;;17.37;94.50;102496.22;4952251;28;20050;-76
2023/06/04 11:05:06;;;;;;;3.60;1.50;;;;;;;17.44;94.26;102486.47;4965311;28;20046;-79
2023/06/04 11:07:45;;;;;;;4.22;1.50;;;;;;;17.47;94.18;102490.03;4986509;28;20045;-78
2023/06/04 11:10:15;;;;;;;3.92;1.75;;;;;;;17.50;94.12;102487.38;4965939;28;20715;-79
2023/06/04 11:12:43;;;;;;;4.03;1.42;;;;;;;17.56;92.19;102504.25;4988795;28;20054;-79
2023/06/04 11:15:11;;;;;;;3.30;1.67;;;;;;;17.44;90.57;102498.03;4979637;28;21276;-77
2023/06/04 11:17:55;;;;;;;3.10;1.25;;;;;;;17.42;90.62;102490.91;4968237;28;20054;-77
2023/06/04 11:20:23;;;;;;;1.88;1.20;;;;;;;17.49;91.91;102488.25;4975790;28;20511;-77
2023/06/04 11:22:58;;;;;;;2.60;1.60;;;;;;;17.63;92.29;102487.38;4985229;28;20049;-79
2023/06/04 11:25:26;;;;;;;2.65;1.20;;;;;;;17.77;90.38;102496.28;4906480;28;20053;-78
2023/06/04 11:27:55;;;;;;;4.63;1.40;;;;;;;17.87;90.10;102484.72;4963131;28;20066;-76